Time;durP1;ratioP1;P1;durP2;ratioP2;P2;SDS_P1;SDS_P2;PMS_P1;PMS_P2;Temp;Humidity;BMP_temperature;BMP_pressure;BME280_temperature;BME280_humidity;BME280_pressure;Samples;Min_cycle;Max_cycle;Signal;HPM_P1;HPM_P2
2021/05/14 00:02:20;;;;;;;3.17;2.63;;;18.50;62.50;;;;;;10533318;28;20034;-59
2021/05/14 00:07:20;;;;;;;3.83;2.88;;;18.50;62.40;;;;;;10553795;28;20400;-58
2021/05/14 00:12:21;;;;;;;3.83;3.05;;;18.50;62.40;;;;;;10545361;28;20365;-58
2021/05/14 00:17:22;;;;;;;3.58;2.97;;;18.50;62.40;;;;;;10545364;28;20028;-58
2021/05/14 00:22:22;;;;;;;4.40;3.33;;;18.50;62.50;;;;;;10544985;28;20040;-58
2021/05/14 00:27:23;;;;;;;3.30;2.80;;;18.50;62.50;;;;;;10544752;28;20032;-59
2021/05/14 00:32:24;;;;;;;4.13;3.35;;;18.50;62.50;;;;;;10544675;28;20388;-58
2021/05/14 00:37:25;;;;;;;4.47;3.38;;;18.50;62.60;;;;;;10544395;28;20038;-59
2021/05/14 00:42:26;;;;;;;3.17;2.88;;;18.50;62.50;;;;;;10555247;28;20563;-58
2021/05/14 00:47:28;;;;;;;3.38;3.08;;;18.50;62.50;;;;;;10541548;28;20117;-59
2021/05/14 00:52:29;;;;;;;5.00;3.25;;;18.50;62.50;;;;;;10565696;28;20032;-58
2021/05/14 00:57:31;;;;;;;4.00;3.45;;;18.50;62.60;;;;;;10541210;28;20027;-58
2021/05/14 01:02:32;;;;;;;4.32;3.13;;;18.50;62.60;;;;;;10541054;28;20056;-58
2021/05/14 01:07:33;;;;;;;3.42;2.95;;;18.50;62.60;;;;;;10540836;28;20107;-59
2021/05/14 01:12:33;;;;;;;5.88;3.33;;;18.40;62.50;;;;;;10540668;28;20020;-58
2021/05/14 01:17:34;;;;;;;5.07;3.45;;;18.50;62.60;;;;;;10540631;28;20038;-59
2021/05/14 01:22:35;;;;;;;3.75;3.17;;;18.40;62.50;;;;;;10540452;28;20115;-58
2021/05/14 01:27:36;;;;;;;3.78;3.15;;;18.40;62.60;;;;;;10534678;28;20028;-59
2021/05/14 01:32:37;;;;;;;3.83;3.00;;;18.40;62.60;;;;;;10550856;28;20076;-58
2021/05/14 01:37:40;;;;;;;6.63;3.58;;;18.40;62.60;;;;;;10533319;28;567749;-58
2021/05/14 01:42:45;;;;;;;4.53;3.30;;;18.40;62.60;;;;;;10555785;28;20032;-59
2021/05/14 01:47:46;;;;;;;3.90;3.45;;;18.40;62.60;;;;;;10544330;28;20399;-58
2021/05/14 01:52:47;;;;;;;3.90;3.20;;;18.40;62.60;;;;;;10563311;28;20035;-59
2021/05/14 01:57:48;;;;;;;3.83;3.15;;;18.40;62.70;;;;;;10523240;28;20031;-58
2021/05/14 02:02:49;;;;;;;4.82;3.65;;;18.40;62.70;;;;;;10549754;28;20119;-59
2021/05/14 02:07:49;;;;;;;3.58;3.00;;;18.40;62.70;;;;;;10544804;28;20439;-59
2021/05/14 02:12:50;;;;;;;5.18;3.42;;;18.40;62.70;;;;;;10540586;28;20024;-59
2021/05/14 02:17:52;;;;;;;4.85;3.65;;;18.40;62.70;;;;;;10552718;28;20379;-58
2021/05/14 02:22:53;;;;;;;3.92;3.53;;;18.40;62.70;;;;;;10541881;28;20067;-59
2021/05/14 02:27:53;;;;;;;4.35;3.72;;;18.40;62.70;;;;;;10554712;28;20543;-59
2021/05/14 02:32:54;;;;;;;4.38;3.65;;;18.40;62.80;;;;;;10547936;28;20114;-58
2021/05/14 02:37:55;;;;;;;4.18;3.15;;;18.40;62.80;;;;;;10539539;28;20044;-61
2021/05/14 02:42:56;;;;;;;4.07;3.08;;;18.30;62.80;;;;;;10553146;28;20115;-58
2021/05/14 02:47:57;;;;;;;4.28;3.28;;;18.40;62.80;;;;;;10557325;28;20026;-59
2021/05/14 02:52:58;;;;;;;3.60;3.10;;;18.30;62.70;;;;;;10558963;28;20468;-59
2021/05/14 02:57:59;;;;;;;4.18;3.10;;;18.30;62.80;;;;;;10534768;28;20035;-59
2021/05/14 03:02:59;;;;;;;5.32;3.30;;;18.30;62.80;;;;;;10539079;28;20108;-59
2021/05/14 03:08:00;;;;;;;4.43;3.58;;;18.30;62.80;;;;;;10520450;28;20059;-58
2021/05/14 03:13:01;;;;;;;3.58;2.85;;;18.30;62.80;;;;;;10539301;28;20031;-59
2021/05/14 03:18:02;;;;;;;3.45;2.90;;;18.30;62.80;;;;;;10538711;28;20023;-59
2021/05/14 03:23:03;;;;;;;3.63;2.83;;;18.30;62.80;;;;;;10538313;28;20028;-59
2021/05/14 03:28:04;;;;;;;3.72;3.22;;;18.30;62.80;;;;;;10520530;28;20056;-58
2021/05/14 03:33:05;;;;;;;3.72;2.83;;;18.30;62.80;;;;;;10519984;28;20027;-59
2021/05/14 03:38:05;;;;;;;3.05;2.65;;;18.30;62.80;;;;;;10519873;28;20041;-59
2021/05/14 03:43:07;;;;;;;4.20;2.80;;;18.30;62.90;;;;;;10551884;28;20111;-59
2021/05/14 03:48:20;;;;;;;3.80;3.00;;;18.30;62.80;;;;;;10567652;28;20353;-59
2021/05/14 03:53:21;;;;;;;4.03;3.13;;;18.30;62.80;;;;;;10535341;28;20020;-58
2021/05/14 03:58:22;;;;;;;4.78;2.85;;;18.30;62.80;;;;;;10537021;28;20119;-59
2021/05/14 04:03:23;;;;;;;4.03;2.95;;;18.30;62.80;;;;;;10537670;28;20608;-59
2021/05/14 04:08:25;;;;;;;3.25;2.72;;;18.20;62.80;;;;;;10538311;28;20379;-59
2021/05/14 04:18:45;;;;;;;3.57;2.67;;;18.20;62.80;;;;;;10537657;28;20477;-59
2021/05/14 04:23:46;;;;;;;3.50;2.47;;;18.20;62.80;;;;;;10537606;28;20028;-59
2021/05/14 04:28:47;;;;;;;4.28;3.08;;;18.20;62.80;;;;;;10521598;28;20032;-59
2021/05/14 04:33:47;;;;;;;2.95;2.42;;;18.20;62.90;;;;;;10544907;28;20028;-59
2021/05/14 04:38:48;;;;;;;4.85;3.22;;;18.20;62.90;;;;;;10544374;28;20056;-59
2021/05/14 04:43:49;;;;;;;3.50;2.92;;;18.20;62.90;;;;;;10558853;28;20052;-59
2021/05/14 04:48:50;;;;;;;3.40;2.80;;;18.20;62.90;;;;;;10556205;28;20063;-59
2021/05/14 04:53:50;;;;;;;4.22;3.25;;;18.20;63.00;;;;;;10557227;28;20395;-60
2021/05/14 04:58:51;;;;;;;4.15;3.47;;;18.20;62.90;;;;;;10544234;28;20024;-59
2021/05/14 05:03:57;;;;;;;3.47;2.80;;;18.20;63.00;;;;;;10525995;28;20379;-59
2021/05/14 05:08:59;;;;;;;3.35;2.83;;;18.20;63.10;;;;;;10525956;28;20036;-58
2021/05/14 05:14:00;;;;;;;3.33;3.03;;;18.20;63.10;;;;;;10543604;28;20047;-59
2021/05/14 05:19:00;;;;;;;3.88;2.60;;;18.20;63.10;;;;;;10552252;28;20570;-58
2021/05/14 05:24:02;;;;;;;3.75;2.83;;;18.20;63.10;;;;;;10562065;28;20063;-59
2021/05/14 05:29:03;;;;;;;4.07;2.65;;;18.20;63.20;;;;;;10568011;28;20491;-59
2021/05/14 05:34:04;;;;;;;3.63;2.85;;;18.20;63.10;;;;;;10545269;28;20468;-59
2021/05/14 05:39:06;;;;;;;3.97;3.17;;;18.20;63.10;;;;;;10541032;28;20048;-58
2021/05/14 05:44:07;;;;;;;4.35;3.75;;;18.20;63.20;;;;;;10538103;28;20024;-59
2021/05/14 05:49:08;;;;;;;5.22;3.13;;;18.20;63.10;;;;;;10555383;28;20044;-58
2021/05/14 05:54:09;;;;;;;4.03;3.05;;;18.20;63.10;;;;;;10573428;28;20051;-59
2021/05/14 05:59:12;;;;;;;3.38;2.88;;;18.10;63.10;;;;;;10583992;28;20072;-58
2021/05/14 06:04:13;;;;;;;5.13;3.40;;;18.10;63.10;;;;;;10583458;28;20031;-59
2021/05/14 06:09:14;;;;;;;4.57;3.20;;;18.10;63.20;;;;;;10565375;28;20023;-58
2021/05/14 06:14:14;;;;;;;3.90;3.10;;;18.10;63.10;;;;;;10583272;28;20028;-58
2021/05/14 06:19:20;;;;;;;3.63;2.95;;;18.10;63.20;;;;;;10565055;28;20034;-58
2021/05/14 06:24:22;;;;;;;4.30;2.95;;;18.10;63.20;;;;;;10565434;28;20066;-59
2021/05/14 06:29:23;;;;;;;5.15;3.25;;;18.10;63.20;;;;;;10582435;28;20050;-59
2021/05/14 06:34:23;;;;;;;3.70;3.00;;;18.10;63.20;;;;;;10582584;28;20052;-59
2021/05/14 06:39:24;;;;;;;6.05;3.30;;;18.10;63.20;;;;;;10563706;28;20130;-59
2021/05/14 06:44:25;;;;;;;3.72;2.92;;;18.10;63.30;;;;;;10564388;28;20095;-59
2021/05/14 06:49:26;;;;;;;3.70;2.75;;;18.10;63.40;;;;;;10556286;28;20023;-59
2021/05/14 06:54:27;;;;;;;4.35;3.42;;;18.10;63.40;;;;;;10547429;28;20028;-59
2021/05/14 06:59:27;;;;;;;3.80;3.20;;;18.10;63.50;;;;;;10539617;28;20153;-59
2021/05/14 07:04:28;;;;;;;5.40;3.42;;;18.10;63.30;;;;;;10515563;28;20020;-58
2021/05/14 07:09:29;;;;;;;3.72;2.90;;;18.10;63.30;;;;;;10538989;28;20028;-58
2021/05/14 07:14:29;;;;;;;3.60;3.22;;;18.10;63.60;;;;;;10539067;28;20571;-59
2021/05/14 07:19:30;;;;;;;4.22;3.33;;;18.10;63.60;;;;;;10538694;28;20111;-59
2021/05/14 07:24:32;;;;;;;3.67;2.92;;;18.10;63.40;;;;;;10538782;28;20031;-59
2021/05/14 07:29:33;;;;;;;4.53;3.22;;;18.10;63.60;;;;;;10538821;28;20028;-59
2021/05/14 07:34:33;;;;;;;3.30;3.00;;;18.10;63.40;;;;;;10538899;28;20026;-58
2021/05/14 07:39:38;;;;;;;3.70;3.13;;;18.10;63.20;;;;;;10520272;28;20083;-59
2021/05/14 07:44:39;;;;;;;4.05;3.35;;;18.10;62.90;;;;;;10552085;28;20028;-59
2021/05/14 07:49:40;;;;;;;4.18;3.58;;;18.10;63.00;;;;;;10538836;28;20027;-59
2021/05/14 07:54:42;;;;;;;4.55;3.33;;;18.10;62.90;;;;;;10525320;28;20027;-59
2021/05/14 07:59:43;;;;;;;4.55;3.33;;;18.10;62.90;;;;;;10538577;28;20048;-59
2021/05/14 08:04:44;;;;;;;6.70;4.25;;;18.10;62.80;;;;;;10541928;28;20029;-59
2021/05/14 08:09:45;;;;;;;4.78;3.55;;;18.10;62.80;;;;;;10546199;28;20414;-59
2021/05/14 08:14:46;;;;;;;4.20;3.45;;;18.10;62.70;;;;;;10545817;28;20038;-59
2021/05/14 08:19:47;;;;;;;4.15;3.03;;;18.10;62.70;;;;;;10545729;28;20028;-59
2021/05/14 08:24:48;;;;;;;4.22;3.47;;;18.10;62.70;;;;;;10545191;28;20028;-59
2021/05/14 08:29:49;;;;;;;5.55;4.13;;;18.00;62.80;;;;;;10545123;28;20417;-58
2021/05/14 08:34:49;;;;;;;3.80;3.25;;;18.00;62.80;;;;;;10527097;28;20456;-59
2021/05/14 08:39:50;;;;;;;3.83;3.17;;;18.00;62.80;;;;;;10545133;28;20155;-59
2021/05/14 08:44:51;;;;;;;4.85;3.50;;;18.00;62.70;;;;;;10540104;28;20028;-59
2021/05/14 08:49:52;;;;;;;3.80;3.05;;;18.00;62.80;;;;;;10565324;28;20407;-59
2021/05/14 08:55:00;;;;;;;4.30;3.35;;;18.00;62.70;;;;;;10548257;28;20034;-59
2021/05/14 09:00:04;;;;;;;4.60;3.30;;;18.00;62.70;;;;;;10544266;28;20024;-59
2021/05/14 09:05:35;;;;;;;3.97;3.20;;;18.00;62.60;;;;;;10554458;28;20032;-59
2021/05/14 09:10:35;;;;;;;3.35;2.72;;;18.00;62.60;;;;;;10586061;28;20053;-59
2021/05/14 09:15:38;;;;;;;5.85;3.90;;;18.00;62.60;;;;;;10585086;28;20035;-58
2021/05/14 09:20:44;;;;;;;5.68;4.25;;;18.00;62.60;;;;;;10586105;28;20034;-58
2021/05/14 09:25:57;;;;;;;5.85;4.20;;;18.00;62.70;;;;;;10585070;28;20471;-59
2021/05/14 09:31:18;;;;;;;4.88;3.85;;;18.00;62.60;;;;;;10557486;28;20038;-59
2021/05/14 09:36:31;;;;;;;4.60;3.47;;;18.00;62.60;;;;;;10542480;28;20035;-58
2021/05/14 09:41:44;;;;;;;5.85;3.53;;;18.00;62.60;;;;;;10549870;28;20134;-59
2021/05/14 09:46:53;;;;;;;6.13;4.35;;;18.00;62.70;;;;;;10546813;28;20035;-58
2021/05/14 09:51:55;;;;;;;5.50;4.55;;;18.00;62.70;;;;;;10566573;28;20422;-59
2021/05/14 09:57:25;;;;;;;6.30;5.40;;;18.00;62.70;;;;;;10523679;28;20498;-59
2021/05/14 10:02:38;;;;;;;5.60;4.47;;;18.00;62.70;;;;;;10541616;28;20472;-59
2021/05/14 10:07:41;;;;;;;5.85;4.10;;;18.00;62.80;;;;;;10541355;28;20466;-58
2021/05/14 10:12:42;;;;;;;5.97;4.93;;;18.10;63.00;;;;;;10537116;28;20059;-58
2021/05/14 10:17:48;;;;;;;5.72;4.80;;;18.00;62.90;;;;;;10540882;28;20548;-59
2021/05/14 10:22:52;;;;;;;5.90;5.20;;;18.10;63.00;;;;;;10523004;28;20107;-59
2021/05/14 10:28:06;;;;;;;6.03;4.95;;;18.10;62.90;;;;;;10522196;28;20051;-58
2021/05/14 10:33:07;;;;;;;5.97;5.03;;;18.10;63.00;;;;;;10540522;28;20507;-58
2021/05/14 10:38:08;;;;;;;5.20;4.50;;;18.10;63.00;;;;;;10540027;28;20057;-59
2021/05/14 10:43:11;;;;;;;7.00;5.53;;;18.10;63.00;;;;;;10553769;28;20032;-59
2021/05/14 10:48:18;;;;;;;6.65;5.07;;;18.10;63.00;;;;;;10546132;28;20019;-59
2021/05/14 10:53:52;;;;;;;5.68;4.70;;;18.20;63.00;;;;;;10568133;28;20544;-59
2021/05/14 10:59:07;;;;;;;5.25;4.20;;;18.20;63.10;;;;;;10512508;28;20380;-59
2021/05/14 11:04:13;;;;;;;5.05;4.38;;;18.20;63.10;;;;;;10539378;28;20472;-59
2021/05/14 11:09:16;;;;;;;5.60;4.70;;;18.20;63.10;;;;;;10538991;28;20024;-59
2021/05/14 11:14:19;;;;;;;5.45;4.68;;;18.20;63.00;;;;;;10538826;28;20458;-59
2021/05/14 11:19:20;;;;;;;5.13;3.70;;;18.30;63.00;;;;;;10538482;28;20111;-58
2021/05/14 11:24:42;;;;;;;5.07;4.00;;;18.30;63.10;;;;;;10539053;28;20115;-58
2021/05/14 11:30:05;;;;;;;5.03;3.60;;;18.30;63.00;;;;;;10569663;28;20093;-59
2021/05/14 11:35:17;;;;;;;4.60;4.00;;;18.30;62.90;;;;;;10580334;28;20043;-58
2021/05/14 11:40:22;;;;;;;4.80;3.88;;;18.40;63.00;;;;;;10587363;28;20044;-58
2021/05/14 11:45:32;;;;;;;5.15;3.47;;;18.40;62.90;;;;;;10562485;28;20036;-59
2021/05/14 11:50:41;;;;;;;3.65;2.97;;;18.40;62.90;;;;;;10549617;28;20031;-58
2021/05/14 11:55:45;;;;;;;4.97;3.83;;;18.40;62.80;;;;;;10546701;28;20036;-59
2021/05/14 12:00:54;;;;;;;4.35;3.78;;;18.40;62.90;;;;;;10546600;28;20049;-59
2021/05/14 12:06:04;;;;;;;4.78;3.85;;;18.40;62.80;;;;;;10545994;28;20064;-59
2021/05/14 12:11:18;;;;;;;4.43;3.55;;;18.40;62.80;;;;;;10528036;28;20085;-59
2021/05/14 12:16:21;;;;;;;5.13;3.33;;;18.40;62.80;;;;;;10545820;28;20028;-59
2021/05/14 12:21:27;;;;;;;6.78;3.78;;;18.40;62.90;;;;;;10527548;28;20035;-59
2021/05/14 12:26:31;;;;;;;3.65;3.17;;;18.40;62.90;;;;;;10545444;28;20059;-58
2021/05/14 12:31:33;;;;;;;4.05;3.00;;;18.50;62.90;;;;;;10527560;28;20020;-59
2021/05/14 12:36:37;;;;;;;4.43;3.38;;;18.50;62.80;;;;;;10545439;28;20028;-58
2021/05/14 12:41:52;;;;;;;4.93;3.80;;;18.50;62.80;;;;;;10553122;28;20048;-58
2021/05/14 12:47:13;;;;;;;3.58;3.15;;;18.50;62.80;;;;;;10559598;28;20089;-58
2021/05/14 12:52:20;;;;;;;3.78;3.00;;;18.50;62.60;;;;;;10584109;28;20034;-58
2021/05/14 12:57:25;;;;;;;4.47;3.47;;;18.60;62.80;;;;;;10568814;28;20023;-58
2021/05/14 13:02:29;;;;;;;3.88;3.05;;;18.60;62.70;;;;;;10552947;28;20031;-58
2021/05/14 13:07:30;;;;;;;3.42;2.70;;;18.70;62.80;;;;;;10543524;28;20028;-58
2021/05/14 13:12:31;;;;;;;3.70;3.13;;;18.70;62.70;;;;;;10543968;28;20027;-58
2021/05/14 13:17:32;;;;;;;3.35;2.85;;;18.70;62.70;;;;;;10525297;28;20443;-58
2021/05/14 13:22:32;;;;;;;3.58;2.65;;;18.70;62.70;;;;;;10543225;28;20031;-59
2021/05/14 13:27:33;;;;;;;4.80;3.28;;;18.70;62.40;;;;;;10542675;28;20028;-58
2021/05/14 13:32:34;;;;;;;3.47;2.80;;;18.70;62.50;;;;;;10542875;28;20032;-58
2021/05/14 13:37:35;;;;;;;3.22;2.75;;;18.70;62.50;;;;;;10538968;28;20032;-58
2021/05/14 13:42:36;;;;;;;4.55;3.10;;;18.70;62.50;;;;;;10581287;28;20044;-58
2021/05/14 13:47:37;;;;;;;4.82;2.58;;;18.70;62.50;;;;;;10543783;28;20025;-58
2021/05/14 13:52:38;;;;;;;3.85;3.28;;;18.70;62.50;;;;;;10564822;28;20407;-58
2021/05/14 13:57:38;;;;;;;3.40;2.97;;;18.70;62.40;;;;;;10541679;28;20036;-59
2021/05/14 14:02:39;;;;;;;3.65;2.92;;;18.70;62.30;;;;;;10540713;28;20028;-59
2021/05/14 14:07:40;;;;;;;3.45;2.75;;;18.70;62.30;;;;;;10541350;28;20036;-58
2021/05/14 14:12:41;;;;;;;3.22;2.35;;;18.70;62.30;;;;;;10541421;28;20024;-58
2021/05/14 14:17:41;;;;;;;2.97;2.30;;;18.70;62.30;;;;;;10540882;28;20130;-58
2021/05/14 14:22:43;;;;;;;3.58;2.55;;;18.80;62.20;;;;;;10540965;28;20054;-59
2021/05/14 14:27:43;;;;;;;3.10;2.70;;;18.80;62.10;;;;;;10522724;28;20364;-58
2021/05/14 14:32:45;;;;;;;3.20;2.88;;;18.80;62.10;;;;;;10540451;28;20058;-58
2021/05/14 14:37:46;;;;;;;2.95;2.40;;;18.80;62.10;;;;;;10522335;28;20028;-58
2021/05/14 14:42:48;;;;;;;3.28;2.35;;;18.80;62.10;;;;;;10552995;28;20119;-58
2021/05/14 14:47:49;;;;;;;3.45;2.72;;;18.80;62.10;;;;;;10543343;28;20115;-58
2021/05/14 14:52:49;;;;;;;3.00;2.33;;;18.80;62.00;;;;;;10561226;28;20099;-58
2021/05/14 14:57:50;;;;;;;2.80;2.20;;;18.80;62.00;;;;;;10539639;28;20024;-57
2021/05/14 15:02:51;;;;;;;2.60;2.10;;;18.80;61.90;;;;;;10539389;28;20077;-58
2021/05/14 15:07:51;;;;;;;2.60;2.03;;;18.80;62.00;;;;;;10538990;28;20089;-59
2021/05/14 15:12:52;;;;;;;3.03;2.25;;;18.80;61.90;;;;;;10538780;28;20039;-59
2021/05/14 15:17:54;;;;;;;2.72;1.90;;;18.90;61.90;;;;;;10538747;28;20028;-58
2021/05/14 15:22:56;;;;;;;2.92;2.00;;;18.90;61.90;;;;;;10520544;28;20536;-58
2021/05/14 15:27:56;;;;;;;3.03;2.30;;;18.80;61.80;;;;;;10538697;28;20058;-58
2021/05/14 15:32:57;;;;;;;3.40;2.30;;;18.90;61.80;;;;;;10538425;28;20112;-58
2021/05/14 15:37:58;;;;;;;2.03;1.77;;;18.90;62.40;;;;;;10520101;28;20039;-58
2021/05/14 15:42:59;;;;;;;2.90;2.35;;;18.90;61.80;;;;;;10552058;28;20032;-59
2021/05/14 15:47:59;;;;;;;3.35;2.38;;;18.90;61.80;;;;;;10541451;28;20028;-59
2021/05/14 15:53:00;;;;;;;2.97;2.17;;;18.90;61.80;;;;;;10539600;28;20081;-58
2021/05/14 15:58:01;;;;;;;3.15;2.45;;;18.90;61.60;;;;;;10520242;28;20111;-58
2021/05/14 16:03:02;;;;;;;3.17;2.25;;;18.80;61.60;;;;;;10519942;28;20035;-58
2021/05/14 16:08:03;;;;;;;2.63;2.03;;;18.80;61.60;;;;;;10538080;28;20077;-59
2021/05/14 16:13:03;;;;;;;2.33;2.03;;;18.80;61.60;;;;;;10537957;28;20052;-58
2021/05/14 16:18:06;;;;;;;3.60;2.15;;;18.80;61.60;;;;;;10519821;28;20064;-59
2021/05/14 16:23:11;;;;;;;2.80;2.17;;;18.80;61.60;;;;;;10537754;28;20097;-58
2021/05/14 16:28:13;;;;;;;2.75;2.15;;;18.80;61.50;;;;;;10545472;28;20039;-59
2021/05/14 16:33:14;;;;;;;2.35;2.13;;;18.80;61.60;;;;;;10545085;28;20095;-58
2021/05/14 16:38:15;;;;;;;2.90;2.00;;;18.80;61.60;;;;;;10568457;28;20379;-59
2021/05/14 16:43:16;;;;;;;2.85;2.25;;;18.70;61.50;;;;;;10562688;28;20032;-58
2021/05/14 16:48:17;;;;;;;2.95;2.47;;;18.70;61.50;;;;;;10527413;28;20024;-59
2021/05/14 16:53:18;;;;;;;3.30;2.33;;;18.70;61.60;;;;;;10554879;28;20061;-59
2021/05/14 16:58:18;;;;;;;2.85;2.22;;;18.70;61.60;;;;;;10553703;28;20093;-58
2021/05/14 17:03:19;;;;;;;3.17;2.47;;;18.70;61.50;;;;;;10544209;28;20115;-58
2021/05/14 17:08:20;;;;;;;2.65;2.28;;;18.70;61.60;;;;;;10543527;28;20030;-59
2021/05/14 17:13:21;;;;;;;3.72;2.72;;;18.70;61.60;;;;;;10547432;28;20103;-58
2021/05/14 17:18:21;;;;;;;2.90;2.25;;;18.70;61.60;;;;;;10543904;28;20032;-58
2021/05/14 17:23:22;;;;;;;4.53;2.22;;;18.70;61.60;;;;;;10525242;28;20027;-59
2021/05/14 17:28:25;;;;;;;1.98;1.70;;;18.70;61.60;;;;;;10542998;28;20097;-59
2021/05/14 17:33:27;;;;;;;2.40;2.10;;;18.70;61.60;;;;;;10542721;28;20063;-58
2021/05/14 17:38:27;;;;;;;3.10;2.22;;;18.70;61.60;;;;;;10555828;28;20127;-59
2021/05/14 17:43:29;;;;;;;2.70;1.67;;;18.70;61.50;;;;;;10545009;28;20388;-59
2021/05/14 17:48:29;;;;;;;3.00;2.20;;;18.70;61.60;;;;;;10557956;28;20044;-59
2021/05/14 17:53:32;;;;;;;3.08;2.08;;;18.70;61.40;;;;;;10541895;28;20052;-59
2021/05/14 17:58:34;;;;;;;3.22;2.15;;;18.70;61.40;;;;;;10541826;28;20366;-58
2021/05/14 18:03:35;;;;;;;3.17;2.58;;;18.70;61.50;;;;;;10541531;28;20425;-58
2021/05/14 18:08:37;;;;;;;3.35;2.58;;;18.70;61.40;;;;;;10545667;28;20081;-59
2021/05/14 18:13:38;;;;;;;3.42;2.40;;;18.70;61.40;;;;;;10565697;28;20019;-59
2021/05/14 18:18:43;;;;;;;2.63;2.35;;;18.70;61.40;;;;;;10583476;28;20114;-59
2021/05/14 18:23:44;;;;;;;4.05;2.40;;;18.70;61.60;;;;;;10583481;28;20024;-59
2021/05/14 18:28:44;;;;;;;3.00;2.45;;;18.70;61.60;;;;;;10582788;28;20083;-59
2021/05/14 18:33:46;;;;;;;2.25;2.03;;;18.60;61.60;;;;;;10582407;28;20019;-59
2021/05/14 18:38:47;;;;;;;2.97;2.45;;;18.60;61.60;;;;;;10559989;28;20036;-58
2021/05/14 18:43:48;;;;;;;2.70;1.92;;;18.60;61.60;;;;;;10577360;28;20484;-59
2021/05/14 18:48:48;;;;;;;2.53;2.13;;;18.60;61.70;;;;;;10539380;28;20027;-59
2021/05/14 18:53:50;;;;;;;3.60;2.35;;;18.60;61.70;;;;;;10539806;28;20055;-59
2021/05/14 18:58:51;;;;;;;3.05;2.30;;;18.60;61.80;;;;;;10521604;28;20028;-59
2021/05/14 19:03:52;;;;;;;2.80;2.03;;;18.60;61.90;;;;;;10539401;28;20111;-59
2021/05/14 19:08:53;;;;;;;2.42;1.92;;;18.60;61.90;;;;;;10539034;28;20078;-59
2021/05/14 19:13:53;;;;;;;3.20;2.28;;;18.60;61.90;;;;;;10538949;28;20440;-59
2021/05/14 19:18:55;;;;;;;3.03;2.15;;;18.60;61.90;;;;;;10539279;28;20484;-59
2021/05/14 19:45:47;;;;;;;2.80;2.40;;;18.60;61.90;;;;;;10554935;28;20036;-59
2021/05/14 19:50:37;;;;;;;2.58;1.90;;;18.50;61.90;;;;;;10537978;28;20190;-59
2021/05/14 19:55:38;;;;;;;2.65;1.98;;;18.50;61.90;;;;;;10538289;28;20111;-59
2021/05/14 20:00:39;;;;;;;2.72;2.05;;;18.50;61.80;;;;;;10542382;28;20103;-59
2021/05/14 20:05:40;;;;;;;2.60;2.05;;;18.50;61.80;;;;;;10546247;28;20079;-59
2021/05/14 20:10:41;;;;;;;2.92;2.25;;;18.50;61.80;;;;;;10527682;28;20030;-59
2021/05/14 20:15:42;;;;;;;2.65;1.95;;;18.50;61.80;;;;;;10527471;28;20387;-59
2021/05/14 20:20:43;;;;;;;2.60;1.95;;;18.50;61.80;;;;;;10545398;28;20024;-59
2021/05/14 20:25:44;;;;;;;2.22;1.80;;;18.50;61.70;;;;;;10545634;28;20111;-58
2021/05/14 20:30:44;;;;;;;2.78;1.95;;;18.50;61.80;;;;;;10545388;28;20073;-58
2021/05/14 20:35:52;;;;;;;3.38;2.05;;;18.50;61.70;;;;;;10527573;28;20378;-58
2021/05/14 20:40:53;;;;;;;3.28;2.00;;;18.50;61.70;;;;;;10556287;28;20043;-58
2021/05/14 20:45:54;;;;;;;2.63;1.73;;;18.50;61.60;;;;;;10534823;28;20024;-59
2021/05/14 20:50:56;;;;;;;2.90;2.03;;;18.50;61.60;;;;;;10586544;28;20024;-58
2021/05/14 20:55:57;;;;;;;2.60;2.00;;;18.50;61.60;;;;;;10568257;28;20024;-59
2021/05/14 21:00:59;;;;;;;2.13;1.83;;;18.50;61.50;;;;;;10587103;28;20036;-58
2021/05/14 21:06:00;;;;;;;2.83;1.90;;;18.50;61.50;;;;;;10567865;28;20062;-59
2021/05/14 21:11:00;;;;;;;2.80;2.13;;;18.50;61.50;;;;;;10567046;28;20020;-58
2021/05/14 21:16:01;;;;;;;2.25;2.00;;;18.50;61.50;;;;;;10585887;28;20122;-58
2021/05/14 21:21:02;;;;;;;2.97;2.35;;;18.40;61.40;;;;;;10585580;28;20536;-58
2021/05/14 21:26:04;;;;;;;3.30;2.28;;;18.40;61.30;;;;;;10584861;28;20035;-59
2021/05/14 21:31:05;;;;;;;3.22;2.03;;;18.40;61.30;;;;;;10585545;28;20027;-58
2021/05/14 21:36:07;;;;;;;2.20;1.67;;;18.40;61.30;;;;;;10584610;28;20020;-59
2021/05/14 21:41:07;;;;;;;3.33;1.77;;;18.40;61.30;;;;;;10551679;28;20056;-58
2021/05/14 21:46:08;;;;;;;3.05;2.03;;;18.40;61.30;;;;;;10551084;28;20110;-59
2021/05/14 21:51:09;;;;;;;4.47;2.28;;;18.40;61.30;;;;;;10524097;28;20077;-59
2021/05/14 21:56:09;;;;;;;3.17;2.33;;;18.40;61.30;;;;;;10541630;28;20028;-59
2021/05/14 22:01:10;;;;;;;2.40;1.65;;;18.40;61.20;;;;;;10541427;28;20032;-59
2021/05/14 22:06:11;;;;;;;3.20;2.17;;;18.40;61.20;;;;;;10565436;28;20031;-59
2021/05/14 22:11:12;;;;;;;2.67;1.80;;;18.40;61.80;;;;;;10569280;28;20035;-58
2021/05/14 22:16:15;;;;;;;3.05;2.40;;;18.40;61.10;;;;;;10542369;28;20166;-59
2021/05/14 22:21:16;;;;;;;3.97;2.80;;;18.40;61.10;;;;;;10568625;28;20051;-59
2021/05/14 22:26:16;;;;;;;2.83;2.25;;;18.30;61.00;;;;;;10582517;28;20039;-59
2021/05/14 22:31:17;;;;;;;3.95;2.10;;;18.30;61.00;;;;;;10564001;28;20382;-59
2021/05/14 22:36:18;;;;;;;2.90;1.95;;;18.30;61.00;;;;;;10569550;28;20552;-59
2021/05/14 22:41:19;;;;;;;3.35;2.47;;;18.30;61.00;;;;;;10547832;28;20054;-59
2021/05/14 22:46:20;;;;;;;4.03;2.00;;;18.30;61.00;;;;;;10557294;28;20106;-59
2021/05/14 22:51:22;;;;;;;2.85;2.13;;;18.30;60.90;;;;;;10539600;28;20032;-58
2021/05/14 22:56:23;;;;;;;3.25;2.40;;;18.30;60.90;;;;;;10539233;28;20111;-59
2021/05/14 23:01:24;;;;;;;2.72;2.13;;;18.30;60.90;;;;;;10539082;28;20114;-59
2021/05/14 23:06:24;;;;;;;3.55;2.35;;;18.30;60.90;;;;;;10539336;28;20028;-59
2021/05/14 23:11:26;;;;;;;3.97;2.67;;;18.30;60.90;;;;;;10538812;28;20051;-58
2021/05/14 23:16:26;;;;;;;2.60;2.05;;;18.30;60.90;;;;;;10538698;28;20433;-59
2021/05/14 23:21:27;;;;;;;3.55;2.40;;;18.30;60.90;;;;;;10538421;28;20038;-59
2021/05/14 23:26:28;;;;;;;2.92;2.20;;;18.30;60.90;;;;;;10510071;28;20031;-59
2021/05/14 23:31:28;;;;;;;4.40;2.58;;;18.30;60.90;;;;;;10538258;28;20028;-58
2021/05/14 23:36:29;;;;;;;3.83;3.00;;;18.30;60.80;;;;;;10544944;28;20475;-59
2021/05/14 23:41:30;;;;;;;6.10;3.38;;;18.20;60.80;;;;;;10544456;28;20514;-59
2021/05/14 23:46:31;;;;;;;3.72;2.72;;;18.20;60.70;;;;;;10555944;28;20532;-58
2021/05/14 23:51:32;;;;;;;3.20;2.53;;;18.20;60.70;;;;;;10537972;28;20115;-59
2021/05/14 23:56:32;;;;;;;3.25;2.25;;;18.20;60.70;;;;;;10537869;28;20028;-59
